sensor_id;sensor_type;location;lat;lon;timestamp;temperature;humidity
21294;DHT22;10806;52.250;21.066;2022-07-01T06:50:27;27.30;70.70
21294;DHT22;10806;52.250;21.066;2022-07-01T06:52:52;27.10;71.30
21294;DHT22;10806;52.250;21.066;2022-07-01T06:55:18;27.20;71.40
21294;DHT22;10806;52.250;21.066;2022-07-01T06:57:43;27.20;71.40
21294;DHT22;10806;52.250;21.066;2022-07-01T07:00:10;27.20;72.10
21294;DHT22;10806;52.250;21.066;2022-07-01T07:02:35;27.20;71.40
21294;DHT22;10806;52.250;21.066;2022-07-01T07:05:01;27.20;71.50
21294;DHT22;10806;52.250;21.066;2022-07-01T07:07:27;27.20;71.60
21294;DHT22;10806;52.250;21.066;2022-07-01T07:09:53;27.20;71.50
21294;DHT22;10806;52.250;21.066;2022-07-01T07:12:19;27.20;71.50
21294;DHT22;10806;52.250;21.066;2022-07-01T07:14:44;27.20;71.50
21294;DHT22;10806;52.250;21.066;2022-07-01T07:17:10;27.20;71.50
21294;DHT22;10806;52.250;21.066;2022-07-01T07:19:36;27.20;71.60
21294;DHT22;10806;52.250;21.066;2022-07-01T07:22:01;27.20;71.60
21294;DHT22;10806;52.250;21.066;2022-07-01T07:24:27;27.30;71.70
21294;DHT22;10806;52.250;21.066;2022-07-01T07:26:52;27.20;72.50
21294;DHT22;10806;52.250;21.066;2022-07-01T07:29:18;27.20;72.40
21294;DHT22;10806;52.250;21.066;2022-07-01T07:31:43;27.20;72.70
21294;DHT22;10806;52.250;21.066;2022-07-01T07:34:09;27.20;72.80
21294;DHT22;10806;52.250;21.066;2022-07-01T07:36:34;27.20;73.00
21294;DHT22;10806;52.250;21.066;2022-07-01T07:39:01;27.30;72.90
21294;DHT22;10806;52.250;21.066;2022-07-01T07:41:27;27.30;73.20
21294;DHT22;10806;52.250;21.066;2022-07-01T07:43:52;27.30;73.30
21294;DHT22;10806;52.250;21.066;2022-07-01T07:46:18;27.30;73.00
21294;DHT22;10806;52.250;21.066;2022-07-01T07:48:43;27.30;73.00
21294;DHT22;10806;52.250;21.066;2022-07-01T07:51:10;27.30;73.70
21294;DHT22;10806;52.250;21.066;2022-07-01T07:53:39;27.30;72.80
21294;DHT22;10806;52.250;21.066;2022-07-01T07:56:05;27.30;72.50
21294;DHT22;10806;52.250;21.066;2022-07-01T07:58:30;27.30;72.50
21294;DHT22;10806;52.250;21.066;2022-07-01T08:00:56;27.20;72.40
21294;DHT22;10806;52.250;21.066;2022-07-01T08:03:22;27.20;72.10
21294;DHT22;10806;52.250;21.066;2022-07-01T08:05:47;27.20;72.00
21294;DHT22;10806;52.250;21.066;2022-07-01T08:08:13;27.30;71.90
21294;DHT22;10806;52.250;21.066;2022-07-01T08:10:39;27.30;72.10
21294;DHT22;10806;52.250;21.066;2022-07-01T08:13:04;27.30;72.00
21294;DHT22;10806;52.250;21.066;2022-07-01T08:15:31;27.30;71.90
21294;DHT22;10806;52.250;21.066;2022-07-01T08:17:57;27.30;71.90
21294;DHT22;10806;52.250;21.066;2022-07-01T08:20:22;27.30;72.00
21294;DHT22;10806;52.250;21.066;2022-07-01T08:22:48;27.30;72.00
21294;DHT22;10806;52.250;21.066;2022-07-01T08:25:13;27.30;72.00
21294;DHT22;10806;52.250;21.066;2022-07-01T08:27:39;27.30;72.10
21294;DHT22;10806;52.250;21.066;2022-07-01T08:30:06;27.30;71.90
21294;DHT22;10806;52.250;21.066;2022-07-01T08:32:32;27.30;71.80
21294;DHT22;10806;52.250;21.066;2022-07-01T08:34:57;27.30;71.70
21294;DHT22;10806;52.250;21.066;2022-07-01T08:37:23;27.30;71.70
21294;DHT22;10806;52.250;21.066;2022-07-01T08:39:48;27.30;71.80
21294;DHT22;10806;52.250;21.066;2022-07-01T08:42:14;27.40;72.10
21294;DHT22;10806;52.250;21.066;2022-07-01T08:44:40;27.40;72.40
21294;DHT22;10806;52.250;21.066;2022-07-01T08:47:11;27.40;72.70
21294;DHT22;10806;52.250;21.066;2022-07-01T08:49:37;27.40;73.80
21294;DHT22;10806;52.250;21.066;2022-07-01T08:52:03;27.40;73.50
21294;DHT22;10806;52.250;21.066;2022-07-01T08:54:28;27.40;73.70
21294;DHT22;10806;52.250;21.066;2022-07-01T08:56:54;27.40;73.30
21294;DHT22;10806;52.250;21.066;2022-07-01T08:59:25;27.40;69.40
21294;DHT22;10806;52.250;21.066;2022-07-01T09:01:56;27.50;68.10
21294;DHT22;10806;52.250;21.066;2022-07-01T09:04:22;27.50;68.20
21294;DHT22;10806;52.250;21.066;2022-07-01T09:06:48;27.50;66.50
21294;DHT22;10806;52.250;21.066;2022-07-01T09:09:19;27.50;66.80
21294;DHT22;10806;52.250;21.066;2022-07-01T09:11:53;27.50;67.70
21294;DHT22;10806;52.250;21.066;2022-07-01T09:14:24;27.50;68.10
21294;DHT22;10806;52.250;21.066;2022-07-01T09:16:54;27.40;68.40
21294;DHT22;10806;52.250;21.066;2022-07-01T09:19:21;27.40;68.60
21294;DHT22;10806;52.250;21.066;2022-07-01T09:21:54;27.40;68.80
21294;DHT22;10806;52.250;21.066;2022-07-01T09:24:35;27.40;68.80
21294;DHT22;10806;52.250;21.066;2022-07-01T09:27:03;27.40;69.00
21294;DHT22;10806;52.250;21.066;2022-07-01T09:29:37;27.40;69.50
21294;DHT22;10806;52.250;21.066;2022-07-01T09:32:05;27.50;69.50
21294;DHT22;10806;52.250;21.066;2022-07-01T09:34:42;27.50;69.60
21294;DHT22;10806;52.250;21.066;2022-07-01T09:37:11;27.50;69.70
21294;DHT22;10806;52.250;21.066;2022-07-01T09:39:44;27.50;69.70
21294;DHT22;10806;52.250;21.066;2022-07-01T09:42:10;27.50;69.80
21294;DHT22;10806;52.250;21.066;2022-07-01T09:45:01;27.40;69.80
21294;DHT22;10806;52.250;21.066;2022-07-01T09:47:34;27.40;69.70
21294;DHT22;10806;52.250;21.066;2022-07-01T09:50:05;27.40;69.50
21294;DHT22;10806;52.250;21.066;2022-07-01T09:52:32;27.40;69.40
21294;DHT22;10806;52.250;21.066;2022-07-01T09:54:58;27.40;69.20
21294;DHT22;10806;52.250;21.066;2022-07-01T09:57:23;27.40;69.00
21294;DHT22;10806;52.250;21.066;2022-07-01T09:59:49;27.40;68.80
21294;DHT22;10806;52.250;21.066;2022-07-01T10:02:18;27.40;68.50
21294;DHT22;10806;52.250;21.066;2022-07-01T10:04:50;27.40;68.30
21294;DHT22;10806;52.250;21.066;2022-07-01T10:07:33;27.40;68.10
21294;DHT22;10806;52.250;21.066;2022-07-01T10:12:30;27.40;67.90
21294;DHT22;10806;52.250;21.066;2022-07-01T10:14:57;27.40;68.00
21294;DHT22;10806;52.250;21.066;2022-07-01T10:17:35;27.40;67.60
21294;DHT22;10806;52.250;21.066;2022-07-01T10:20:12;27.40;67.60
21294;DHT22;10806;52.250;21.066;2022-07-01T10:22:40;27.40;67.40
21294;DHT22;10806;52.250;21.066;2022-07-01T10:25:44;27.40;67.30
21294;DHT22;10806;52.250;21.066;2022-07-01T10:31:07;27.40;67.10
21294;DHT22;10806;52.250;21.066;2022-07-01T10:33:56;27.40;67.10
21294;DHT22;10806;52.250;21.066;2022-07-01T10:39:14;27.40;66.90
21294;DHT22;10806;52.250;21.066;2022-07-01T10:41:55;27.40;66.70
21294;DHT22;10806;52.250;21.066;2022-07-01T10:44:24;27.40;66.80
21294;DHT22;10806;52.250;21.066;2022-07-01T10:47:09;27.40;66.80
21294;DHT22;10806;52.250;21.066;2022-07-01T10:52:10;27.40;66.40
21294;DHT22;10806;52.250;21.066;2022-07-01T11:02:30;27.40;66.00
21294;DHT22;10806;52.250;21.066;2022-07-01T11:04:58;27.40;66.00
21294;DHT22;10806;52.250;21.066;2022-07-01T11:07:26;27.40;67.00
21294;DHT22;10806;52.250;21.066;2022-07-01T11:09:52;27.40;65.90
21294;DHT22;10806;52.250;21.066;2022-07-01T11:12:21;27.40;66.10
21294;DHT22;10806;52.250;21.066;2022-07-01T11:14:48;27.40;65.80
21294;DHT22;10806;52.250;21.066;2022-07-01T11:17:14;27.40;65.90
21294;DHT22;10806;52.250;21.066;2022-07-01T11:19:47;27.40;65.80
21294;DHT22;10806;52.250;21.066;2022-07-01T11:22:18;27.40;65.50
21294;DHT22;10806;52.250;21.066;2022-07-01T11:24:44;27.40;65.80
21294;DHT22;10806;52.250;21.066;2022-07-01T11:27:10;27.40;65.70
21294;DHT22;10806;52.250;21.066;2022-07-01T11:29:35;27.40;65.60
21294;DHT22;10806;52.250;21.066;2022-07-01T11:32:01;27.40;65.70
21294;DHT22;10806;52.250;21.066;2022-07-01T11:34:28;27.40;65.70
21294;DHT22;10806;52.250;21.066;2022-07-01T11:36:55;27.40;65.60
21294;DHT22;10806;52.250;21.066;2022-07-01T11:39:39;27.40;65.50
21294;DHT22;10806;52.250;21.066;2022-07-01T11:42:08;27.40;65.30
21294;DHT22;10806;52.250;21.066;2022-07-01T11:44:43;27.40;65.30
21294;DHT22;10806;52.250;21.066;2022-07-01T11:47:22;27.40;65.20
21294;DHT22;10806;52.250;21.066;2022-07-01T11:49:49;27.40;66.00
21294;DHT22;10806;52.250;21.066;2022-07-01T11:52:16;27.40;65.20
21294;DHT22;10806;52.250;21.066;2022-07-01T11:54:45;27.40;65.00
21294;DHT22;10806;52.250;21.066;2022-07-01T11:57:19;27.40;64.90
21294;DHT22;10806;52.250;21.066;2022-07-01T11:59:46;27.40;64.90
21294;DHT22;10806;52.250;21.066;2022-07-01T12:02:13;27.40;65.60
21294;DHT22;10806;52.250;21.066;2022-07-01T12:04:40;27.40;64.70
21294;DHT22;10806;52.250;21.066;2022-07-01T12:07:07;27.40;64.70
21294;DHT22;10806;52.250;21.066;2022-07-01T12:09:33;27.40;64.70
21294;DHT22;10806;52.250;21.066;2022-07-01T12:11:59;27.40;64.60
21294;DHT22;10806;52.250;21.066;2022-07-01T12:14:33;27.40;64.60
21294;DHT22;10806;52.250;21.066;2022-07-01T12:17:04;27.40;64.50
21294;DHT22;10806;52.250;21.066;2022-07-01T12:19:39;27.40;64.50
21294;DHT22;10806;52.250;21.066;2022-07-01T12:22:07;27.40;64.40
21294;DHT22;10806;52.250;21.066;2022-07-01T12:24:33;27.40;64.30
21294;DHT22;10806;52.250;21.066;2022-07-01T12:29:26;27.40;64.50
21294;DHT22;10806;52.250;21.066;2022-07-01T12:32:03;27.40;65.10
21294;DHT22;10806;52.250;21.066;2022-07-01T12:34:43;27.40;64.30
21294;DHT22;10806;52.250;21.066;2022-07-01T12:37:12;27.40;64.20
21294;DHT22;10806;52.250;21.066;2022-07-01T12:40:08;27.40;64.30
21294;DHT22;10806;52.250;21.066;2022-07-01T12:42:36;27.40;64.30
21294;DHT22;10806;52.250;21.066;2022-07-01T12:45:07;27.40;64.30
21294;DHT22;10806;52.250;21.066;2022-07-01T12:47:36;27.40;64.20
21294;DHT22;10806;52.250;21.066;2022-07-01T12:50:16;27.40;64.20
21294;DHT22;10806;52.250;21.066;2022-07-01T12:55:40;27.40;63.80
21294;DHT22;10806;52.250;21.066;2022-07-01T12:58:14;27.40;64.20
21294;DHT22;10806;52.250;21.066;2022-07-01T13:00:41;27.40;64.10
21294;DHT22;10806;52.250;21.066;2022-07-01T13:03:07;27.40;64.20
21294;DHT22;10806;52.250;21.066;2022-07-01T13:05:35;27.40;64.60
21294;DHT22;10806;52.250;21.066;2022-07-01T13:08:02;27.40;63.90
21294;DHT22;10806;52.250;21.066;2022-07-01T13:10:28;27.40;63.90
21294;DHT22;10806;52.250;21.066;2022-07-01T13:12:54;27.40;63.80
21294;DHT22;10806;52.250;21.066;2022-07-01T13:15:20;27.40;63.90
21294;DHT22;10806;52.250;21.066;2022-07-01T13:17:46;27.40;63.90
21294;DHT22;10806;52.250;21.066;2022-07-01T13:20:13;27.40;63.60
21294;DHT22;10806;52.250;21.066;2022-07-01T13:22:39;27.40;63.80
21294;DHT22;10806;52.250;21.066;2022-07-01T13:25:05;27.40;63.70
21294;DHT22;10806;52.250;21.066;2022-07-01T13:27:31;27.40;63.70
21294;DHT22;10806;52.250;21.066;2022-07-01T13:29:57;27.40;63.50
21294;DHT22;10806;52.250;21.066;2022-07-01T13:32:23;27.40;63.60
21294;DHT22;10806;52.250;21.066;2022-07-01T13:34:49;27.40;63.60
21294;DHT22;10806;52.250;21.066;2022-07-01T13:37:15;27.40;63.60
21294;DHT22;10806;52.250;21.066;2022-07-01T13:39:41;27.40;63.50
21294;DHT22;10806;52.250;21.066;2022-07-01T13:42:06;27.40;63.50
21294;DHT22;10806;52.250;21.066;2022-07-01T13:44:32;27.40;63.30
21294;DHT22;10806;52.250;21.066;2022-07-01T13:46:59;27.40;63.40
21294;DHT22;10806;52.250;21.066;2022-07-01T13:49:24;27.40;63.40
21294;DHT22;10806;52.250;21.066;2022-07-01T13:51:50;27.40;63.10
21294;DHT22;10806;52.250;21.066;2022-07-01T13:54:16;27.40;63.20
21294;DHT22;10806;52.250;21.066;2022-07-01T13:56:41;27.40;63.10
21294;DHT22;10806;52.250;21.066;2022-07-01T13:59:07;27.40;63.10
21294;DHT22;10806;52.250;21.066;2022-07-01T14:01:34;27.40;63.10
21294;DHT22;10806;52.250;21.066;2022-07-01T14:04:00;27.40;63.00
21294;DHT22;10806;52.250;21.066;2022-07-01T14:06:26;27.40;63.00
21294;DHT22;10806;52.250;21.066;2022-07-01T14:08:51;27.40;63.00
21294;DHT22;10806;52.250;21.066;2022-07-01T14:11:17;27.40;63.00
21294;DHT22;10806;52.250;21.066;2022-07-01T14:13:43;27.40;62.80
21294;DHT22;10806;52.250;21.066;2022-07-01T14:16:08;27.40;62.80
21294;DHT22;10806;52.250;21.066;2022-07-01T14:18:34;27.40;63.00
21294;DHT22;10806;52.250;21.066;2022-07-01T14:21:01;27.40;63.40
21294;DHT22;10806;52.250;21.066;2022-07-01T14:23:27;27.40;63.70
21294;DHT22;10806;52.250;21.066;2022-07-01T14:25:53;27.40;63.60
21294;DHT22;10806;52.250;21.066;2022-07-01T14:28:19;27.50;64.30
21294;DHT22;10806;52.250;21.066;2022-07-01T14:30:45;27.50;64.70
21294;DHT22;10806;52.250;21.066;2022-07-01T14:33:11;27.50;64.40
21294;DHT22;10806;52.250;21.066;2022-07-01T14:35:37;27.50;65.10
21294;DHT22;10806;52.250;21.066;2022-07-01T14:38:03;27.50;64.90
21294;DHT22;10806;52.250;21.066;2022-07-01T14:40:31;27.50;65.00
21294;DHT22;10806;52.250;21.066;2022-07-01T14:42:57;27.50;64.60
21294;DHT22;10806;52.250;21.066;2022-07-01T14:45:23;27.50;64.60
21294;DHT22;10806;52.250;21.066;2022-07-01T14:47:48;27.50;65.20
21294;DHT22;10806;52.250;21.066;2022-07-01T14:50:14;27.50;64.80
21294;DHT22;10806;52.250;21.066;2022-07-01T14:52:40;27.50;64.60
21294;DHT22;10806;52.250;21.066;2022-07-01T14:55:05;27.50;64.40
21294;DHT22;10806;52.250;21.066;2022-07-01T14:57:31;27.50;64.80
21294;DHT22;10806;52.250;21.066;2022-07-01T14:59:57;27.50;64.40
21294;DHT22;10806;52.250;21.066;2022-07-01T15:02:23;27.50;64.10
21294;DHT22;10806;52.250;21.066;2022-07-01T15:04:49;27.50;64.00
21294;DHT22;10806;52.250;21.066;2022-07-01T15:07:15;27.50;63.70
21294;DHT22;10806;52.250;21.066;2022-07-01T15:09:41;27.50;64.30
21294;DHT22;10806;52.250;21.066;2022-07-01T15:12:07;27.50;64.70
21294;DHT22;10806;52.250;21.066;2022-07-01T15:14:33;27.50;64.70
21294;DHT22;10806;52.250;21.066;2022-07-01T15:16:59;27.50;64.70
21294;DHT22;10806;52.250;21.066;2022-07-01T15:19:25;27.50;64.50
21294;DHT22;10806;52.250;21.066;2022-07-01T15:21:55;27.50;64.40
21294;DHT22;10806;52.250;21.066;2022-07-01T15:24:21;27.50;64.40
21294;DHT22;10806;52.250;21.066;2022-07-01T15:26:47;27.50;64.30
21294;DHT22;10806;52.250;21.066;2022-07-01T15:29:13;27.50;64.10
21294;DHT22;10806;52.250;21.066;2022-07-01T15:31:39;27.50;64.00
21294;DHT22;10806;52.250;21.066;2022-07-01T15:34:04;27.50;63.80
21294;DHT22;10806;52.250;21.066;2022-07-01T15:36:30;27.50;63.80
21294;DHT22;10806;52.250;21.066;2022-07-01T15:38:56;27.50;63.70
21294;DHT22;10806;52.250;21.066;2022-07-01T15:41:23;27.50;63.70
21294;DHT22;10806;52.250;21.066;2022-07-01T15:43:50;27.50;63.40
21294;DHT22;10806;52.250;21.066;2022-07-01T15:46:15;27.50;63.30
21294;DHT22;10806;52.250;21.066;2022-07-01T15:48:41;27.50;63.30
21294;DHT22;10806;52.250;21.066;2022-07-01T15:51:06;27.50;63.20
21294;DHT22;10806;52.250;21.066;2022-07-01T15:53:32;27.50;63.30
21294;DHT22;10806;52.250;21.066;2022-07-01T15:55:59;27.50;63.30
21294;DHT22;10806;52.250;21.066;2022-07-01T15:58:24;27.50;63.10
21294;DHT22;10806;52.250;21.066;2022-07-01T16:00:50;27.50;63.10
21294;DHT22;10806;52.250;21.066;2022-07-01T16:03:16;27.50;63.00
21294;DHT22;10806;52.250;21.066;2022-07-01T16:05:46;27.50;62.70
21294;DHT22;10806;52.250;21.066;2022-07-01T16:08:23;27.50;62.90
21294;DHT22;10806;52.250;21.066;2022-07-01T16:10:51;27.50;62.30
21294;DHT22;10806;52.250;21.066;2022-07-01T16:13:21;27.50;62.30
21294;DHT22;10806;52.250;21.066;2022-07-01T16:15:51;27.50;60.90
21294;DHT22;10806;52.250;21.066;2022-07-01T16:18:17;27.50;58.70
21294;DHT22;10806;52.250;21.066;2022-07-01T16:20:48;27.50;57.20
21294;DHT22;10806;52.250;21.066;2022-07-01T16:23:25;27.60;55.70
21294;DHT22;10806;52.250;21.066;2022-07-01T16:25:55;27.60;55.00
21294;DHT22;10806;52.250;21.066;2022-07-01T16:28:22;27.60;54.90
21294;DHT22;10806;52.250;21.066;2022-07-01T16:30:49;27.60;54.70
21294;DHT22;10806;52.250;21.066;2022-07-01T16:33:15;27.60;54.90
21294;DHT22;10806;52.250;21.066;2022-07-01T16:35:43;27.70;55.30
21294;DHT22;10806;52.250;21.066;2022-07-01T16:38:12;27.70;54.90
21294;DHT22;10806;52.250;21.066;2022-07-01T16:40:41;27.70;55.60
21294;DHT22;10806;52.250;21.066;2022-07-01T16:43:09;27.70;54.30
21294;DHT22;10806;52.250;21.066;2022-07-01T16:45:41;27.70;54.00
21294;DHT22;10806;52.250;21.066;2022-07-01T16:48:13;27.70;53.60
21294;DHT22;10806;52.250;21.066;2022-07-01T16:50:41;27.80;52.80
21294;DHT22;10806;52.250;21.066;2022-07-01T16:53:15;27.70;52.90
21294;DHT22;10806;52.250;21.066;2022-07-01T16:55:45;27.70;53.00
21294;DHT22;10806;52.250;21.066;2022-07-01T16:58:16;27.80;53.10
21294;DHT22;10806;52.250;21.066;2022-07-01T17:00:44;27.80;53.10
21294;DHT22;10806;52.250;21.066;2022-07-01T17:03:10;27.70;53.30
21294;DHT22;10806;52.250;21.066;2022-07-01T17:05:36;27.70;53.30
21294;DHT22;10806;52.250;21.066;2022-07-01T17:08:02;27.70;53.30
21294;DHT22;10806;52.250;21.066;2022-07-01T17:10:29;27.80;53.30
21294;DHT22;10806;52.250;21.066;2022-07-01T17:12:56;27.70;53.30
21294;DHT22;10806;52.250;21.066;2022-07-01T17:15:22;27.70;53.30
21294;DHT22;10806;52.250;21.066;2022-07-01T17:17:48;27.70;53.50
21294;DHT22;10806;52.250;21.066;2022-07-01T17:20:15;27.70;53.60
21294;DHT22;10806;52.250;21.066;2022-07-01T17:25:13;27.70;54.40
21294;DHT22;10806;52.250;21.066;2022-07-01T17:30:18;27.60;55.00
21294;DHT22;10806;52.250;21.066;2022-07-01T17:32:54;27.60;54.80
21294;DHT22;10806;52.250;21.066;2022-07-01T17:35:23;27.60;54.50
21294;DHT22;10806;52.250;21.066;2022-07-01T17:37:53;27.70;54.40
21294;DHT22;10806;52.250;21.066;2022-07-01T17:40:21;27.80;54.50
21294;DHT22;10806;52.250;21.066;2022-07-01T17:42:47;27.80;54.30
21294;DHT22;10806;52.250;21.066;2022-07-01T17:45:15;27.80;54.80
21294;DHT22;10806;52.250;21.066;2022-07-01T17:47:42;27.80;54.90
21294;DHT22;10806;52.250;21.066;2022-07-01T17:50:08;27.80;55.40
21294;DHT22;10806;52.250;21.066;2022-07-01T17:52:35;27.80;55.60
21294;DHT22;10806;52.250;21.066;2022-07-01T17:55:03;27.80;56.10
21294;DHT22;10806;52.250;21.066;2022-07-01T17:57:29;27.80;55.80
21294;DHT22;10806;52.250;21.066;2022-07-01T17:59:56;27.80;55.90
21294;DHT22;10806;52.250;21.066;2022-07-01T18:02:22;27.80;55.80
21294;DHT22;10806;52.250;21.066;2022-07-01T18:04:48;27.80;56.00
21294;DHT22;10806;52.250;21.066;2022-07-01T18:07:20;27.80;56.10
21294;DHT22;10806;52.250;21.066;2022-07-01T18:09:46;27.80;56.30
21294;DHT22;10806;52.250;21.066;2022-07-01T18:12:33;27.80;56.20
21294;DHT22;10806;52.250;21.066;2022-07-01T18:15:11;27.80;56.40
21294;DHT22;10806;52.250;21.066;2022-07-01T18:17:56;27.70;56.20
21294;DHT22;10806;52.250;21.066;2022-07-01T18:20:54;27.70;56.20
21294;DHT22;10806;52.250;21.066;2022-07-01T18:23:34;27.70;56.10
21294;DHT22;10806;52.250;21.066;2022-07-01T18:26:05;27.70;56.10
21294;DHT22;10806;52.250;21.066;2022-07-01T18:28:41;27.70;56.80
21294;DHT22;10806;52.250;21.066;2022-07-01T18:31:17;27.70;57.30
21294;DHT22;10806;52.250;21.066;2022-07-01T18:36:31;27.80;57.50
21294;DHT22;10806;52.250;21.066;2022-07-01T18:38:57;27.80;57.80
21294;DHT22;10806;52.250;21.066;2022-07-01T18:41:23;27.80;58.00
21294;DHT22;10806;52.250;21.066;2022-07-01T18:43:49;27.70;58.00
21294;DHT22;10806;52.250;21.066;2022-07-01T18:46:16;27.80;58.00
21294;DHT22;10806;52.250;21.066;2022-07-01T18:48:41;27.70;58.00
21294;DHT22;10806;52.250;21.066;2022-07-01T18:51:07;27.80;58.70
21294;DHT22;10806;52.250;21.066;2022-07-01T18:53:32;27.80;58.30
21294;DHT22;10806;52.250;21.066;2022-07-01T18:55:58;27.80;58.40
21294;DHT22;10806;52.250;21.066;2022-07-01T18:58:24;27.80;58.30
21294;DHT22;10806;52.250;21.066;2022-07-01T19:00:49;27.80;58.40
21294;DHT22;10806;52.250;21.066;2022-07-01T19:03:15;27.80;58.70
21294;DHT22;10806;52.250;21.066;2022-07-01T19:05:40;27.80;58.70
21294;DHT22;10806;52.250;21.066;2022-07-01T19:08:06;27.80;58.40
21294;DHT22;10806;52.250;21.066;2022-07-01T19:10:32;27.80;58.20
21294;DHT22;10806;52.250;21.066;2022-07-01T19:12:57;27.80;58.20
21294;DHT22;10806;52.250;21.066;2022-07-01T19:15:23;27.70;58.20
21294;DHT22;10806;52.250;21.066;2022-07-01T19:17:49;27.70;58.20
21294;DHT22;10806;52.250;21.066;2022-07-01T19:20:14;27.70;58.30
21294;DHT22;10806;52.250;21.066;2022-07-01T19:22:42;27.70;58.50
21294;DHT22;10806;52.250;21.066;2022-07-01T19:25:08;27.70;58.20
21294;DHT22;10806;52.250;21.066;2022-07-01T19:27:34;27.70;58.30
21294;DHT22;10806;52.250;21.066;2022-07-01T19:30:00;27.70;58.40
21294;DHT22;10806;52.250;21.066;2022-07-01T19:32:26;27.70;58.30
21294;DHT22;10806;52.250;21.066;2022-07-01T19:34:52;27.70;58.30
21294;DHT22;10806;52.250;21.066;2022-07-01T19:37:18;27.70;58.40
21294;DHT22;10806;52.250;21.066;2022-07-01T19:39:44;27.70;58.50
21294;DHT22;10806;52.250;21.066;2022-07-01T19:42:11;27.70;58.70
21294;DHT22;10806;52.250;21.066;2022-07-01T19:44:37;27.70;58.80
21294;DHT22;10806;52.250;21.066;2022-07-01T19:47:02;27.70;59.10
21294;DHT22;10806;52.250;21.066;2022-07-01T19:49:28;27.70;59.00
21294;DHT22;10806;52.250;21.066;2022-07-01T19:51:54;27.70;59.10
21294;DHT22;10806;52.250;21.066;2022-07-01T19:54:20;27.70;59.30
21294;DHT22;10806;52.250;21.066;2022-07-01T19:56:52;27.70;59.10
21294;DHT22;10806;52.250;21.066;2022-07-01T19:59:18;27.70;59.30
21294;DHT22;10806;52.250;21.066;2022-07-01T20:01:43;27.80;59.20
21294;DHT22;10806;52.250;21.066;2022-07-01T20:04:09;27.80;59.30
21294;DHT22;10806;52.250;21.066;2022-07-01T20:06:35;27.80;58.90
21294;DHT22;10806;52.250;21.066;2022-07-01T20:09:00;27.80;59.40
21294;DHT22;10806;52.250;21.066;2022-07-01T20:11:26;27.70;59.10
21294;DHT22;10806;52.250;21.066;2022-07-01T20:13:51;27.70;59.00
21294;DHT22;10806;52.250;21.066;2022-07-01T20:16:17;27.80;59.10
21294;DHT22;10806;52.250;21.066;2022-07-01T20:18:43;27.80;58.90
21294;DHT22;10806;52.250;21.066;2022-07-01T20:21:09;27.80;59.00
21294;DHT22;10806;52.250;21.066;2022-07-01T20:23:34;27.70;58.60
21294;DHT22;10806;52.250;21.066;2022-07-01T20:26:00;27.80;58.80
21294;DHT22;10806;52.250;21.066;2022-07-01T20:28:25;27.80;58.90
21294;DHT22;10806;52.250;21.066;2022-07-01T20:30:51;27.80;58.60
21294;DHT22;10806;52.250;21.066;2022-07-01T20:33:17;27.80;59.00
21294;DHT22;10806;52.250;21.066;2022-07-01T20:35:43;27.80;59.10
21294;DHT22;10806;52.250;21.066;2022-07-01T20:38:08;27.70;59.20
21294;DHT22;10806;52.250;21.066;2022-07-01T20:40:34;27.80;59.40
21294;DHT22;10806;52.250;21.066;2022-07-01T20:43:00;27.70;59.30
21294;DHT22;10806;52.250;21.066;2022-07-01T20:45:25;27.70;59.30
21294;DHT22;10806;52.250;21.066;2022-07-01T20:47:51;27.70;59.60
21294;DHT22;10806;52.250;21.066;2022-07-01T20:50:16;27.70;59.60
21294;DHT22;10806;52.250;21.066;2022-07-01T20:52:42;27.70;59.70
21294;DHT22;10806;52.250;21.066;2022-07-01T20:55:09;27.70;59.70
21294;DHT22;10806;52.250;21.066;2022-07-01T20:57:34;27.80;59.80
21294;DHT22;10806;52.250;21.066;2022-07-01T21:00:00;27.70;59.70
21294;DHT22;10806;52.250;21.066;2022-07-01T21:02:26;27.70;59.70
21294;DHT22;10806;52.250;21.066;2022-07-01T21:04:54;27.70;59.60
21294;DHT22;10806;52.250;21.066;2022-07-01T21:07:21;27.70;59.60
21294;DHT22;10806;52.250;21.066;2022-07-01T21:09:47;27.70;59.60
21294;DHT22;10806;52.250;21.066;2022-07-01T21:12:12;27.70;59.60
21294;DHT22;10806;52.250;21.066;2022-07-01T21:14:38;27.70;59.50
21294;DHT22;10806;52.250;21.066;2022-07-01T21:17:04;27.70;59.60
21294;DHT22;10806;52.250;21.066;2022-07-01T21:19:30;27.70;59.60
21294;DHT22;10806;52.250;21.066;2022-07-01T21:21:55;27.70;59.50
21294;DHT22;10806;52.250;21.066;2022-07-01T21:24:23;27.70;59.50
21294;DHT22;10806;52.250;21.066;2022-07-01T21:26:49;27.70;59.60
21294;DHT22;10806;52.250;21.066;2022-07-01T21:29:15;27.70;59.70
21294;DHT22;10806;52.250;21.066;2022-07-01T21:31:41;27.70;59.30
21294;DHT22;10806;52.250;21.066;2022-07-01T21:34:09;27.70;58.80
21294;DHT22;10806;52.250;21.066;2022-07-01T21:36:35;27.70;58.50
21294;DHT22;10806;52.250;21.066;2022-07-01T21:39:01;27.70;59.10
21294;DHT22;10806;52.250;21.066;2022-07-01T21:41:32;27.70;58.20
21294;DHT22;10806;52.250;21.066;2022-07-01T21:44:00;27.70;58.20
21294;DHT22;10806;52.250;21.066;2022-07-01T21:46:29;27.70;58.20
21294;DHT22;10806;52.250;21.066;2022-07-01T21:48:56;27.70;58.40
21294;DHT22;10806;52.250;21.066;2022-07-01T21:51:22;27.70;59.20
21294;DHT22;10806;52.250;21.066;2022-07-01T21:53:47;27.70;59.40
21294;DHT22;10806;52.250;21.066;2022-07-01T21:56:14;27.70;59.60
21294;DHT22;10806;52.250;21.066;2022-07-01T21:58:42;27.70;59.70
21294;DHT22;10806;52.250;21.066;2022-07-01T22:01:08;27.70;59.90
21294;DHT22;10806;52.250;21.066;2022-07-01T22:03:36;27.60;60.30
21294;DHT22;10806;52.250;21.066;2022-07-01T22:06:02;27.60;60.70
21294;DHT22;10806;52.250;21.066;2022-07-01T22:08:44;27.60;61.30
21294;DHT22;10806;52.250;21.066;2022-07-01T22:11:14;27.60;61.70
21294;DHT22;10806;52.250;21.066;2022-07-01T22:13:47;27.60;62.10
21294;DHT22;10806;52.250;21.066;2022-07-01T22:16:16;27.60;62.40
21294;DHT22;10806;52.250;21.066;2022-07-01T22:18:45;27.70;62.80
21294;DHT22;10806;52.250;21.066;2022-07-01T22:21:13;27.70;63.10
21294;DHT22;10806;52.250;21.066;2022-07-01T22:23:41;27.60;63.10
21294;DHT22;10806;52.250;21.066;2022-07-01T22:26:10;27.60;63.20
21294;DHT22;10806;52.250;21.066;2022-07-01T22:28:37;27.60;63.50
21294;DHT22;10806;52.250;21.066;2022-07-01T22:31:04;27.60;63.60
21294;DHT22;10806;52.250;21.066;2022-07-01T22:33:32;27.60;63.70
21294;DHT22;10806;52.250;21.066;2022-07-01T22:35:58;27.60;64.10
21294;DHT22;10806;52.250;21.066;2022-07-01T22:38:25;27.60;64.50
21294;DHT22;10806;52.250;21.066;2022-07-01T22:40:52;27.60;64.70